Terminal Aerodrome Forecast
Issued by NWS

Current Version | Previous Version | Text Only | Print | Product List | Glossary On
Versions: 1 2 3 4 5 6 7 8 9 10 11 12 13 14 15
000
FTUS43 KBIS 020538
TAFMOT
TAF
KMOT 020538Z 0206/0306 33007KT P6SM SCT050
     FM021200 04012KT P6SM -SHRA OVC050
      TEMPO 0214/0218 3SM TSRA BKN045CB=

USA.gov is the U.S. government's official web portal to all federal, state and local government web resources and services.